createdAt,value
2022-11-27T00:02:19.336Z,102774.84
2022-11-27T00:04:51.506Z,102773.06
2022-11-27T00:07:23.690Z,102769.63
2022-11-27T00:09:55.687Z,102766.66
2022-11-27T00:12:27.707Z,102763.25
2022-11-27T00:14:59.834Z,102761.91
2022-11-27T00:17:31.898Z,102755.75
2022-11-27T00:20:04.981Z,102759.19
2022-11-27T00:22:37.003Z,102765.16
2022-11-27T00:25:09.260Z,102764.88
2022-11-27T00:27:41.287Z,102770.28
2022-11-27T00:30:14.155Z,102761.44
2022-11-27T00:32:46.207Z,102760.06
2022-11-27T00:35:18.500Z,102761.97
2022-11-27T00:37:50.580Z,102765.28
2022-11-27T00:40:22.564Z,102756.53
2022-11-27T00:42:54.590Z,102761.78
2022-11-27T00:45:26.659Z,102755.81
2022-11-27T00:47:58.627Z,102756.88
2022-11-27T00:50:32.209Z,102755.22
2022-11-27T00:53:04.253Z,102751.03
2022-11-27T00:55:36.221Z,102744.13
2022-11-27T00:58:08.342Z,102746.91
2022-11-27T01:00:40.548Z,102748.13
2022-11-27T01:03:12.577Z,102748.19
2022-11-27T01:05:44.905Z,102744.88
2022-11-27T01:08:17.684Z,102754.34
2022-11-27T01:10:56.167Z,102744.72
2022-11-27T01:13:33.096Z,102745.72
2022-11-27T01:16:12.794Z,102743.75
2022-11-27T01:18:46.963Z,102743.81
2022-11-27T01:21:21.845Z,102737.63
2022-11-27T01:23:55.137Z,102749.91
2022-11-27T01:26:27.961Z,102742.22
2022-11-27T01:29:00.324Z,102726.31
2022-11-27T01:31:34.587Z,102733.25
2022-11-27T01:34:16.952Z,102733.19
2022-11-27T01:36:49.070Z,102727.97
2022-11-27T01:39:24.499Z,102718.81
2022-11-27T01:41:56.665Z,102718.28
2022-11-27T01:44:28.510Z,102727.16
2022-11-27T01:47:15.055Z,102723.00
2022-11-27T01:49:52.905Z,102720.28
2022-11-27T01:52:31.470Z,102715.69
2022-11-27T01:55:19.076Z,102716.22
2022-11-27T01:57:59.157Z,102708.25
2022-11-27T02:00:31.142Z,102711.78
2022-11-27T02:03:03.214Z,102710.06
2022-11-27T02:05:35.572Z,102700.97
2022-11-27T02:08:15.734Z,102702.41
2022-11-27T02:11:18.084Z,102693.84
2022-11-27T02:14:23.942Z,102701.22
2022-11-27T02:17:12.613Z,102690.00
2022-11-27T02:19:56.528Z,102694.06
2022-11-27T02:23:11.568Z,102686.97
2022-11-27T02:26:32.008Z,102678.88
2022-11-27T02:29:10.017Z,102677.69
2022-11-27T02:32:11.238Z,102679.09
2022-11-27T02:34:46.111Z,102675.41
2022-11-27T02:37:53.875Z,102680.38
2022-11-27T02:40:42.783Z,102670.94
2022-11-27T02:43:37.282Z,102677.06
2022-11-27T02:46:11.046Z,102681.25
2022-11-27T02:49:02.447Z,102669.72
2022-11-27T02:51:43.565Z,102667.47
2022-11-27T02:54:22.550Z,102664.94
2022-11-27T02:56:57.592Z,102671.91
2022-11-27T02:59:31.784Z,102670.84
2022-11-27T03:02:14.338Z,102673.19
2022-11-27T03:04:53.032Z,102674.81
2022-11-27T03:08:01.983Z,102671.84
2022-11-27T03:11:14.482Z,102675.88
2022-11-27T03:13:52.417Z,102667.41
2022-11-27T03:16:50.430Z,102669.06
2022-11-27T03:19:33.991Z,102668.03
2022-11-27T03:22:06.642Z,102666.13
2022-11-27T03:24:39.687Z,102667.75
2022-11-27T03:27:17.357Z,102666.94
2022-11-27T03:29:57.430Z,102678.97
2022-11-27T03:32:31.292Z,102669.84
2022-11-27T03:35:06.115Z,102666.34
2022-11-27T03:37:38.182Z,102666.63
2022-11-27T03:40:11.267Z,102671.59
2022-11-27T03:43:17.119Z,102674.22
2022-11-27T03:45:57.691Z,102671.47
2022-11-27T03:49:05.139Z,102653.09
2022-11-27T03:52:06.483Z,102645.16
2022-11-27T03:55:03.498Z,102648.97
2022-11-27T03:57:43.184Z,102647.00
2022-11-27T04:00:15.774Z,102645.47
2022-11-27T04:02:52.399Z,102641.81
2022-11-27T04:05:24.538Z,102635.47
2022-11-27T04:07:56.734Z,102639.69
2022-11-27T04:10:28.815Z,102631.22
2022-11-27T04:13:00.771Z,102641.88
2022-11-27T04:15:32.900Z,102644.41
2022-11-27T04:18:05.143Z,102639.81
2022-11-27T04:20:37.402Z,102631.44
2022-11-27T04:23:10.315Z,102637.44
2022-11-27T04:25:42.399Z,102628.97
2022-11-27T04:28:14.680Z,102617.44
2022-11-27T04:30:52.707Z,102625.34
2022-11-27T04:33:25.149Z,102613.56
2022-11-27T04:35:57.266Z,102618.53
2022-11-27T04:38:29.591Z,102613.06
2022-11-27T04:41:01.698Z,102602.91
2022-11-27T04:43:33.839Z,102605.72
2022-11-27T04:46:06.160Z,102598.22
2022-11-27T04:48:38.285Z,102598.28
2022-11-27T04:51:10.261Z,102595.47
2022-11-27T04:53:42.391Z,102586.63
2022-11-27T04:56:14.505Z,102590.03
2022-11-27T04:58:46.475Z,102594.25
2022-11-27T05:01:18.957Z,102592.28
2022-11-27T05:03:51.268Z,102585.00
2022-11-27T05:06:23.241Z,102584.13
2022-11-27T05:09:02.160Z,102588.13
2022-11-27T05:11:34.923Z,102577.22
2022-11-27T05:14:16.772Z,102583.59
2022-11-27T05:16:52.735Z,102577.00
2022-11-27T05:19:28.878Z,102563.16
2022-11-27T05:22:00.867Z,102551.78
2022-11-27T05:24:33.308Z,102546.53
2022-11-27T05:27:05.470Z,102538.00
2022-11-27T05:29:39.575Z,102544.34
2022-11-27T05:32:11.579Z,102548.28
2022-11-27T05:34:43.651Z,102546.88
2022-11-27T05:37:19.450Z,102548.56
2022-11-27T05:39:52.124Z,102552.66
2022-11-27T05:42:24.310Z,102551.69
2022-11-27T05:44:58.483Z,102550.47
2022-11-27T05:47:30.690Z,102555.28
2022-11-27T05:50:02.764Z,102543.91
2022-11-27T05:52:35.306Z,102554.13
2022-11-27T05:55:08.030Z,102547.25
2022-11-27T05:57:40.115Z,102543.09
2022-11-27T06:00:13.123Z,102529.47
2022-11-27T06:02:45.178Z,102525.84
2022-11-27T06:05:17.300Z,102534.38
2022-11-27T06:07:49.334Z,102523.19
2022-11-27T06:10:22.685Z,102508.63
2022-11-27T06:12:55.615Z,102518.47
2022-11-27T06:15:28.851Z,102527.06
2022-11-27T06:18:00.823Z,102530.53
2022-11-27T06:20:33.486Z,102530.06
2022-11-27T06:23:05.453Z,102519.56
2022-11-27T06:25:37.446Z,102511.00
2022-11-27T06:28:09.707Z,102514.19
2022-11-27T06:30:41.742Z,102510.63
2022-11-27T06:33:13.885Z,102510.84
2022-11-27T06:35:45.821Z,102509.06
2022-11-27T06:38:17.874Z,102506.47
2022-11-27T06:40:49.866Z,102507.66
2022-11-27T06:43:21.950Z,102503.38
2022-11-27T06:45:58.553Z,102491.31
2022-11-27T06:48:31.018Z,102491.25
2022-11-27T06:51:06.178Z,102486.00
2022-11-27T06:53:39.114Z,102482.44
2022-11-27T06:56:15.557Z,102472.22
2022-11-27T06:58:51.583Z,102481.91
2022-11-27T07:01:26.384Z,102477.41
2022-11-27T07:03:59.144Z,102479.50
2022-11-27T07:06:31.368Z,102483.84
2022-11-27T07:09:04.109Z,102472.00
2022-11-27T07:11:36.984Z,102490.66
2022-11-27T07:14:10.183Z,102494.03
2022-11-27T07:16:42.317Z,102486.13
2022-11-27T07:19:14.857Z,102493.91
2022-11-27T07:21:46.828Z,102483.69
2022-11-27T07:24:18.901Z,102482.00
2022-11-27T07:26:51.048Z,102488.22
2022-11-27T07:29:23.355Z,102478.91
2022-11-27T07:31:55.583Z,102479.50
2022-11-27T07:34:27.564Z,102480.53
2022-11-27T07:36:59.594Z,102479.84
2022-11-27T07:40:00.233Z,102478.81
2022-11-27T07:42:37.344Z,102475.91
2022-11-27T07:45:11.947Z,102483.84
2022-11-27T07:47:43.930Z,102490.13
2022-11-27T07:50:16.030Z,102488.28
2022-11-27T07:52:48.186Z,102484.50
2022-11-27T07:55:20.285Z,102485.50
2022-11-27T07:57:52.289Z,102481.41
2022-11-27T08:00:25.090Z,102485.09
2022-11-27T08:02:57.181Z,102484.41
2022-11-27T08:05:29.480Z,102474.19
2022-11-27T08:08:04.546Z,102470.44
2022-11-27T08:10:38.475Z,102465.53
2022-11-27T08:13:10.776Z,102465.47
2022-11-27T08:15:43.050Z,102461.59
2022-11-27T08:18:15.082Z,102464.19
2022-11-27T08:20:47.040Z,102455.31
2022-11-27T08:23:19.022Z,102457.31
2022-11-27T08:25:50.980Z,102456.69
2022-11-27T08:28:23.056Z,102450.53
2022-11-27T08:31:00.665Z,102450.53
2022-11-27T08:33:33.217Z,102446.66
2022-11-27T08:36:08.514Z,102439.38
2022-11-27T08:38:41.897Z,102437.59
2022-11-27T08:41:14.520Z,102426.56
2022-11-27T08:43:46.646Z,102428.13
2022-11-27T08:46:18.745Z,102429.84
2022-11-27T08:48:50.802Z,102425.47
2022-11-27T08:51:22.802Z,102431.69
2022-11-27T08:53:55.132Z,102426.44
2022-11-27T08:56:27.545Z,102417.78
2022-11-27T08:58:59.504Z,102428.47
2022-11-27T09:01:33.265Z,102427.66
2022-11-27T09:04:05.617Z,102410.69
2022-11-27T09:06:37.791Z,102404.47
2022-11-27T09:09:10.451Z,102396.53
2022-11-27T09:11:43.161Z,102396.13
2022-11-27T09:14:15.396Z,102385.94
2022-11-27T09:16:50.379Z,102394.44
2022-11-27T09:19:22.424Z,102392.16
2022-11-27T09:21:54.421Z,102382.09
2022-11-27T09:24:29.215Z,102381.63
2022-11-27T09:27:01.302Z,102381.75
2022-11-27T09:29:35.324Z,102377.88
2022-11-27T09:32:07.532Z,102370.25
2022-11-27T09:34:39.935Z,102370.56
2022-11-27T09:37:12.114Z,102379.66
2022-11-27T09:39:44.086Z,102387.31
2022-11-27T09:42:40.426Z,102390.56
2022-11-27T09:45:16.289Z,102393.44
2022-11-27T09:48:06.949Z,102391.22
2022-11-27T09:50:50.582Z,102392.25
2022-11-27T09:53:34.276Z,102401.22
2022-11-27T09:56:11.361Z,102391.72
2022-11-27T09:58:50.148Z,102389.50
2022-11-27T10:01:34.899Z,102382.19
2022-11-27T10:04:14.712Z,102378.31
2022-11-27T10:07:02.010Z,102389.09
2022-11-27T10:09:37.552Z,102383.72
2022-11-27T10:12:27.167Z,102382.75
2022-11-27T10:15:07.475Z,102373.63
2022-11-27T10:17:49.159Z,102368.44
2022-11-27T10:20:51.499Z,102376.97
2022-11-27T10:23:53.738Z,102363.50
2022-11-27T10:26:38.146Z,102374.44
2022-11-27T10:29:32.334Z,102370.13
2022-11-27T10:32:46.740Z,102372.91
2022-11-27T10:35:20.061Z,102371.03
2022-11-27T10:38:16.180Z,102369.63
2022-11-27T10:41:28.335Z,102367.97
2022-11-27T10:44:57.847Z,102364.13
2022-11-27T10:47:33.638Z,102352.69
2022-11-27T10:50:20.477Z,102355.66
2022-11-27T10:52:59.757Z,102356.50
2022-11-27T10:56:02.390Z,102348.41
2022-11-27T10:59:07.244Z,102347.69
2022-11-27T11:01:53.493Z,102343.84
2022-11-27T11:04:39.956Z,102337.31
2022-11-27T11:07:29.704Z,102340.13
2022-11-27T11:10:02.148Z,102334.56
2022-11-27T11:12:34.382Z,102329.72
2022-11-27T11:15:11.848Z,102326.97
2022-11-27T11:17:43.952Z,102310.53
2022-11-27T11:20:24.860Z,102311.81
2022-11-27T11:22:57.274Z,102308.97
2022-11-27T11:25:29.493Z,102313.63
2022-11-27T11:28:01.499Z,102302.81
2022-11-27T11:30:34.850Z,102300.88
2022-11-27T11:33:12.647Z,102300.16
2022-11-27T11:35:54.728Z,102294.94
2022-11-27T11:38:33.113Z,102291.06
2022-11-27T11:41:07.436Z,102286.88
2022-11-27T11:43:39.972Z,102280.28
2022-11-27T11:46:25.361Z,102279.56
2022-11-27T11:49:18.408Z,102273.75
2022-11-27T11:52:14.012Z,102268.00
2022-11-27T11:54:59.593Z,102272.56
2022-11-27T11:57:39.781Z,102266.56
2022-11-27T12:00:29.614Z,102262.44
2022-11-27T12:03:28.344Z,102257.91
2022-11-27T12:06:47.561Z,102251.13
2022-11-27T12:09:45.208Z,102255.44
2022-11-27T12:12:23.311Z,102251.13
2022-11-27T12:15:45.147Z,102250.34
2022-11-27T12:18:35.493Z,102240.88
2022-11-27T12:21:38.151Z,102242.81
2022-11-27T12:24:33.924Z,102240.28
2022-11-27T12:27:33.097Z,102231.38
2022-11-27T12:30:26.616Z,102230.34
2022-11-27T12:33:07.578Z,102228.44
2022-11-27T12:36:20.316Z,102220.31
2022-11-27T12:39:10.039Z,102213.47
2022-11-27T12:42:23.264Z,102211.44
2022-11-27T12:45:22.009Z,102210.50
2022-11-27T12:48:03.519Z,102200.22
2022-11-27T12:50:48.444Z,102206.44
2022-11-27T12:53:39.775Z,102201.13
2022-11-27T12:56:31.407Z,102197.00
2022-11-27T12:59:15.246Z,102190.25
2022-11-27T13:02:09.248Z,102188.47
2022-11-27T13:04:52.313Z,102185.78
2022-11-27T13:07:53.152Z,102183.00
2022-11-27T13:10:47.256Z,102181.44
2022-11-27T13:13:59.922Z,102176.44
2022-11-27T13:16:41.476Z,102168.56
2022-11-27T13:19:32.167Z,102165.78
2022-11-27T13:22:16.107Z,102168.59
2022-11-27T13:24:48.223Z,102158.97
2022-11-27T13:27:26.310Z,102159.78
2022-11-27T13:30:26.742Z,102158.22
2022-11-27T13:33:01.841Z,102151.22
2022-11-27T13:35:43.386Z,102145.47
2022-11-27T13:38:24.709Z,102142.91
2022-11-27T13:40:57.705Z,102142.69
2022-11-27T13:43:44.264Z,102139.84
2022-11-27T13:46:29.830Z,102130.94
2022-11-27T13:49:05.439Z,102129.34
2022-11-27T13:51:39.711Z,102124.84
2022-11-27T13:54:17.121Z,102133.44
2022-11-27T13:56:49.707Z,102129.34
2022-11-27T13:59:24.652Z,102125.47
2022-11-27T14:02:05.617Z,102120.38
2022-11-27T14:04:55.667Z,102109.97
2022-11-27T14:07:45.335Z,102105.44
2022-11-27T14:10:25.878Z,102105.50
2022-11-27T14:13:09.756Z,102107.41
2022-11-27T14:15:41.958Z,102106.34
2022-11-27T14:18:20.022Z,102096.09
2022-11-27T14:21:01.867Z,102094.34
2022-11-27T14:23:49.436Z,102082.09
2022-11-27T14:26:25.111Z,102078.56
2022-11-27T14:28:59.849Z,102075.28
2022-11-27T14:31:35.808Z,102060.63
2022-11-27T14:34:32.453Z,102055.41
2022-11-27T14:37:04.555Z,102057.19
2022-11-27T14:39:38.024Z,102055.56
2022-11-27T14:42:27.941Z,102058.16
2022-11-27T14:45:15.873Z,102057.16
2022-11-27T14:47:54.149Z,102052.66
2022-11-27T14:50:26.492Z,102038.53
2022-11-27T14:52:58.837Z,102036.19
2022-11-27T14:55:34.862Z,102017.19
2022-11-27T14:58:15.468Z,102018.84
2022-11-27T15:01:24.112Z,102024.13
2022-11-27T15:04:02.616Z,102022.50
2022-11-27T15:06:44.229Z,102023.34
2022-11-27T15:09:32.622Z,102012.94
2022-11-27T15:12:17.885Z,102010.41
2022-11-27T15:15:06.281Z,102011.22
2022-11-27T15:17:40.097Z,102007.75
2022-11-27T15:20:23.679Z,101997.44
2022-11-27T15:22:58.156Z,101992.00
2022-11-27T15:25:42.634Z,101986.75
2022-11-27T15:28:33.934Z,101988.38
2022-11-27T15:31:33.660Z,101999.53
2022-11-27T15:34:17.617Z,101984.59
2022-11-27T15:37:01.563Z,101976.72
2022-11-27T15:39:39.081Z,101981.00
2022-11-27T15:42:11.767Z,101968.91
2022-11-27T15:44:43.974Z,101972.25
2022-11-27T15:47:34.074Z,101970.47
2022-11-27T15:50:07.608Z,101966.19
2022-11-27T15:52:39.596Z,101960.16
2022-11-27T15:55:16.019Z,101956.44
2022-11-27T15:57:48.116Z,101950.47
2022-11-27T16:00:22.253Z,101953.16
2022-11-27T16:02:54.686Z,101947.09
2022-11-27T16:05:26.793Z,101939.34
2022-11-27T16:08:01.800Z,101933.53
2022-11-27T16:10:33.870Z,101918.63
2022-11-27T16:13:05.812Z,101916.69
2022-11-27T16:15:38.447Z,101907.06
2022-11-27T16:18:11.912Z,101904.53
2022-11-27T16:20:43.974Z,101895.72
2022-11-27T16:23:15.931Z,101883.53
2022-11-27T16:25:48.113Z,101884.41
2022-11-27T16:28:20.177Z,101872.94
2022-11-27T16:30:58.291Z,101867.69
2022-11-27T16:33:31.902Z,101871.81
2022-11-27T16:36:13.541Z,101893.41
2022-11-27T16:38:46.742Z,101881.41
2022-11-27T16:41:19.864Z,101884.81
2022-11-27T16:43:55.281Z,101889.19
2022-11-27T16:46:31.102Z,101912.72
2022-11-27T16:49:06.448Z,101904.88
2022-11-27T16:51:40.161Z,101904.03
2022-11-27T16:54:14.099Z,101905.00
2022-11-27T16:56:46.399Z,101911.97
2022-11-27T16:59:18.360Z,101903.31
2022-11-27T17:01:50.607Z,101905.03
2022-11-27T17:04:22.802Z,101905.94
2022-11-27T17:06:54.987Z,101894.63
2022-11-27T17:09:29.504Z,101882.44
2022-11-27T17:12:02.018Z,101874.66
2022-11-27T17:14:34.058Z,101880.81
2022-11-27T17:17:06.731Z,101876.53
2022-11-27T17:19:39.027Z,101873.94
2022-11-27T17:22:11.356Z,101882.50
2022-11-27T17:24:43.401Z,101872.22
2022-11-27T17:27:15.382Z,101868.75
2022-11-27T17:29:47.451Z,101870.44
2022-11-27T17:32:19.508Z,101869.53
2022-11-27T17:34:51.535Z,101866.84
2022-11-27T17:37:23.780Z,101860.78
2022-11-27T17:39:55.862Z,101865.00
2022-11-27T17:42:27.889Z,101860.69
2022-11-27T17:45:00.005Z,101850.44
2022-11-27T17:47:34.219Z,101861.84
2022-11-27T17:50:07.875Z,101859.44
2022-11-27T17:52:40.016Z,101857.78
2022-11-27T17:55:12.100Z,101850.91
2022-11-27T17:57:44.125Z,101862.19
2022-11-27T18:00:18.739Z,101848.25
2022-11-27T18:02:50.868Z,101843.78
2022-11-27T18:05:22.822Z,101838.53
2022-11-27T18:07:55.038Z,101832.44
2022-11-27T18:10:27.234Z,101827.19
2022-11-27T18:12:59.358Z,101827.34
2022-11-27T18:15:31.496Z,101821.19
2022-11-27T18:18:03.796Z,101829.06
2022-11-27T18:20:36.514Z,101817.91
2022-11-27T18:23:08.590Z,101804.16
2022-11-27T18:25:47.593Z,101800.66
2022-11-27T18:28:21.942Z,101793.56
2022-11-27T18:30:54.256Z,101780.59
2022-11-27T18:33:26.540Z,101792.66
2022-11-27T18:35:58.555Z,101804.66
2022-11-27T18:38:36.395Z,101799.50
2022-11-27T18:41:21.893Z,101804.69
2022-11-27T18:43:54.340Z,101802.06
2022-11-27T18:46:26.497Z,101796.03
2022-11-27T18:48:59.177Z,101791.81
2022-11-27T18:51:31.232Z,101791.81
2022-11-27T18:54:03.320Z,101789.16
2022-11-27T18:56:37.201Z,101792.63
2022-11-27T18:59:09.421Z,101786.59
2022-11-27T19:01:42.724Z,101787.56
2022-11-27T19:04:18.055Z,101793.47
2022-11-27T19:06:50.098Z,101787.22
2022-11-27T19:09:22.221Z,101789.09
2022-11-27T19:11:54.244Z,101782.97
2022-11-27T19:14:26.320Z,101782.09
2022-11-27T19:16:58.762Z,101769.03
2022-11-27T19:22:25.477Z,101772.56
2022-11-27T19:24:57.445Z,101755.19
2022-11-27T19:27:29.488Z,101760.47
2022-11-27T19:30:01.699Z,101754.31
2022-11-27T19:32:33.731Z,101749.03
2022-11-27T19:35:10.401Z,101740.41
2022-11-27T19:37:42.374Z,101739.53
2022-11-27T19:40:15.023Z,101745.59
2022-11-27T19:42:47.217Z,101750.72
2022-11-27T19:45:20.967Z,101755.81
2022-11-27T19:47:53.203Z,101744.75
2022-11-27T19:50:25.498Z,101733.56
2022-11-27T19:52:59.512Z,101726.56
2022-11-27T19:55:32.250Z,101720.47
2022-11-27T19:58:04.617Z,101710.13
2022-11-27T20:00:37.371Z,101708.31
2022-11-27T20:03:09.375Z,101705.69
2022-11-27T20:05:41.443Z,101707.38
2022-11-27T20:08:13.484Z,101699.63
2022-11-27T20:10:51.024Z,101709.09
2022-11-27T20:13:23.200Z,101708.84
2022-11-27T20:15:55.771Z,101718.34
2022-11-27T20:18:28.310Z,101715.75
2022-11-27T20:21:12.901Z,101715.78
2022-11-27T20:23:46.966Z,101712.34
2022-11-27T20:26:23.625Z,101716.03
2022-11-27T20:28:56.683Z,101699.59
2022-11-27T20:31:33.152Z,101704.78
2022-11-27T20:34:07.324Z,101705.59
2022-11-27T20:36:40.664Z,101709.94
2022-11-27T20:39:17.687Z,101703.88
2022-11-27T20:41:53.536Z,101709.09
2022-11-27T20:44:27.736Z,101695.22
2022-11-27T20:47:00.199Z,101697.72
2022-11-27T20:49:33.992Z,101689.00
2022-11-27T20:52:06.456Z,101684.75
2022-11-27T20:54:38.837Z,101692.44
2022-11-27T20:57:14.249Z,101685.50
2022-11-27T20:59:46.272Z,101681.00
2022-11-27T21:02:18.744Z,101673.28
2022-11-27T21:04:50.739Z,101671.53
2022-11-27T21:07:22.823Z,101667.22
2022-11-27T21:09:57.714Z,101664.63
2022-11-27T21:12:31.772Z,101659.44
2022-11-27T21:15:05.508Z,101658.50
2022-11-27T21:17:37.646Z,101653.34
2022-11-27T21:20:10.232Z,101648.09
2022-11-27T21:22:44.134Z,101643.88
2022-11-27T21:25:16.387Z,101639.56
2022-11-27T21:27:48.378Z,101629.97
2022-11-27T21:30:20.505Z,101640.41
2022-11-27T21:32:52.536Z,101640.41
2022-11-27T21:35:30.080Z,101634.28
2022-11-27T21:38:03.766Z,101633.47
2022-11-27T21:40:37.428Z,101626.66
2022-11-27T21:43:09.396Z,101624.03
2022-11-27T21:45:41.377Z,101631.03
2022-11-27T21:48:14.506Z,101623.91
2022-11-27T21:50:47.069Z,101615.31
2022-11-27T21:53:19.057Z,101613.56
2022-11-27T21:55:51.250Z,101604.91
2022-11-27T21:58:26.082Z,101608.34
2022-11-27T22:00:58.346Z,101611.81
2022-11-27T22:03:30.582Z,101604.00
2022-11-27T22:06:12.860Z,101603.94
2022-11-27T22:08:49.409Z,101610.59
2022-11-27T22:11:26.912Z,101599.44
2022-11-27T22:14:03.234Z,101597.50
2022-11-27T22:16:44.362Z,101591.47
2022-11-27T22:19:18.019Z,101584.53
2022-11-27T22:21:50.716Z,101569.84
2022-11-27T22:24:22.698Z,101587.97
2022-11-27T22:26:54.707Z,101576.59
2022-11-27T22:29:26.944Z,101571.31
2022-11-27T22:31:58.949Z,101561.69
2022-11-27T22:34:31.227Z,101566.84
2022-11-27T22:37:05.998Z,101554.56
2022-11-27T22:39:38.130Z,101550.28
2022-11-27T22:42:10.432Z,101543.38
2022-11-27T22:44:42.734Z,101547.72
2022-11-27T22:47:15.545Z,101544.09
2022-11-27T22:49:47.601Z,101539.78
2022-11-27T22:52:19.716Z,101534.56
2022-11-27T22:54:51.742Z,101519.97
2022-11-27T22:57:24.031Z,101520.91
2022-11-27T22:59:56.376Z,101503.38
2022-11-27T23:02:28.485Z,101501.78
2022-11-27T23:05:00.536Z,101498.31
2022-11-27T23:07:32.519Z,101495.66
2022-11-27T23:10:05.077Z,101495.56
2022-11-27T23:12:37.459Z,101491.22
2022-11-27T23:15:10.104Z,101488.44
2022-11-27T23:17:42.025Z,101487.56
2022-11-27T23:20:14.248Z,101482.47
2022-11-27T23:22:46.293Z,101478.03
2022-11-27T23:25:18.494Z,101468.47
2022-11-27T23:27:50.813Z,101478.78
2022-11-27T23:30:22.925Z,101464.81
2022-11-27T23:32:55.100Z,101458.75
2022-11-27T23:35:27.404Z,101463.91
2022-11-27T23:37:59.531Z,101461.28
2022-11-27T23:40:31.569Z,101457.03
2022-11-27T23:43:03.573Z,101453.66
2022-11-27T23:45:38.529Z,101449.38
2022-11-27T23:48:10.514Z,101442.38
2022-11-27T23:50:43.433Z,101438.78
2022-11-27T23:53:15.538Z,101443.09
2022-11-27T23:55:47.778Z,101429.19
2022-11-27T23:58:19.797Z,101421.28
